sensor_id;sensor_type;location;lat;lon;timestamp;P1;durP1;ratioP1;P2;durP2;ratioP2
20972;SDS011;10645;52.370;13.314;2022-11-18T00:00:32;6.30;;;5.40;;
20972;SDS011;10645;52.370;13.314;2022-11-18T00:02:58;6.47;;;5.67;;
20972;SDS011;10645;52.370;13.314;2022-11-18T00:05:24;6.60;;;4.47;;
20972;SDS011;10645;52.370;13.314;2022-11-18T00:07:50;7.90;;;4.87;;
20972;SDS011;10645;52.370;13.314;2022-11-18T00:10:16;7.73;;;6.60;;
20972;SDS011;10645;52.370;13.314;2022-11-18T00:12:43;6.23;;;5.10;;
20972;SDS011;10645;52.370;13.314;2022-11-18T00:15:27;5.90;;;5.33;;
20972;SDS011;10645;52.370;13.314;2022-11-18T00:17:54;10.13;;;7.43;;
20972;SDS011;10645;52.370;13.314;2022-11-18T00:20:20;4.57;;;4.27;;
20972;SDS011;10645;52.370;13.314;2022-11-18T00:22:46;8.37;;;4.50;;
20972;SDS011;10645;52.370;13.314;2022-11-18T00:25:12;7.97;;;4.63;;
20972;SDS011;10645;52.370;13.314;2022-11-18T00:27:38;6.20;;;3.90;;
20972;SDS011;10645;52.370;13.314;2022-11-18T00:30:04;6.37;;;4.80;;
20972;SDS011;10645;52.370;13.314;2022-11-18T00:32:30;12.57;;;9.30;;
20972;SDS011;10645;52.370;13.314;2022-11-18T00:34:56;11.50;;;7.10;;
20972;SDS011;10645;52.370;13.314;2022-11-18T00:37:22;7.73;;;5.20;;
20972;SDS011;10645;52.370;13.314;2022-11-18T00:39:49;4.60;;;3.67;;
20972;SDS011;10645;52.370;13.314;2022-11-18T00:42:15;4.43;;;4.17;;
20972;SDS011;10645;52.370;13.314;2022-11-18T00:44:59;7.50;;;6.73;;
20972;SDS011;10645;52.370;13.314;2022-11-18T00:47:25;13.63;;;5.50;;
20972;SDS011;10645;52.370;13.314;2022-11-18T00:49:51;7.33;;;5.00;;
20972;SDS011;10645;52.370;13.314;2022-11-18T00:52:17;7.03;;;6.33;;
20972;SDS011;10645;52.370;13.314;2022-11-18T00:54:43;8.80;;;5.73;;
20972;SDS011;10645;52.370;13.314;2022-11-18T00:57:09;7.17;;;5.83;;
20972;SDS011;10645;52.370;13.314;2022-11-18T00:59:36;9.00;;;4.33;;
20972;SDS011;10645;52.370;13.314;2022-11-18T01:02:02;9.03;;;7.47;;
20972;SDS011;10645;52.370;13.314;2022-11-18T01:04:28;8.10;;;6.33;;
20972;SDS011;10645;52.370;13.314;2022-11-18T01:06:54;6.63;;;5.47;;
20972;SDS011;10645;52.370;13.314;2022-11-18T01:09:20;7.27;;;4.77;;
20972;SDS011;10645;52.370;13.314;2022-11-18T01:11:46;6.00;;;5.37;;
20972;SDS011;10645;52.370;13.314;2022-11-18T01:14:30;6.67;;;6.13;;
20972;SDS011;10645;52.370;13.314;2022-11-18T01:16:56;5.47;;;4.30;;
20972;SDS011;10645;52.370;13.314;2022-11-18T01:19:23;8.27;;;6.37;;
20972;SDS011;10645;52.370;13.314;2022-11-18T01:21:49;9.33;;;5.23;;
20972;SDS011;10645;52.370;13.314;2022-11-18T01:24:15;9.03;;;6.67;;
20972;SDS011;10645;52.370;13.314;2022-11-18T01:26:42;10.53;;;5.53;;
20972;SDS011;10645;52.370;13.314;2022-11-18T01:29:08;10.23;;;6.97;;
20972;SDS011;10645;52.370;13.314;2022-11-18T01:31:34;10.40;;;5.73;;
20972;SDS011;10645;52.370;13.314;2022-11-18T01:34:02;6.43;;;5.00;;
20972;SDS011;10645;52.370;13.314;2022-11-18T01:36:28;6.43;;;4.73;;
20972;SDS011;10645;52.370;13.314;2022-11-18T01:38:55;11.87;;;7.10;;
20972;SDS011;10645;52.370;13.314;2022-11-18T01:41:23;5.13;;;3.63;;
20972;SDS011;10645;52.370;13.314;2022-11-18T01:46:16;4.17;;;3.77;;
20972;SDS011;10645;52.370;13.314;2022-11-18T01:48:42;8.83;;;7.43;;
20972;SDS011;10645;52.370;13.314;2022-11-18T01:51:12;10.43;;;6.53;;
20972;SDS011;10645;52.370;13.314;2022-11-18T01:53:45;12.00;;;4.90;;
20972;SDS011;10645;52.370;13.314;2022-11-18T01:56:23;8.93;;;5.93;;
20972;SDS011;10645;52.370;13.314;2022-11-18T01:59:11;6.93;;;6.27;;
20972;SDS011;10645;52.370;13.314;2022-11-18T02:01:42;13.83;;;6.13;;
20972;SDS011;10645;52.370;13.314;2022-11-18T02:04:09;8.50;;;4.67;;
20972;SDS011;10645;52.370;13.314;2022-11-18T02:06:36;6.23;;;5.73;;
20972;SDS011;10645;52.370;13.314;2022-11-18T02:09:03;6.93;;;4.93;;
20972;SDS011;10645;52.370;13.314;2022-11-18T02:11:29;8.30;;;4.73;;
20972;SDS011;10645;52.370;13.314;2022-11-18T02:14:16;11.90;;;6.90;;
20972;SDS011;10645;52.370;13.314;2022-11-18T02:19:29;5.47;;;5.17;;
20972;SDS011;10645;52.370;13.314;2022-11-18T02:27:54;6.67;;;6.07;;
20972;SDS011;10645;52.370;13.314;2022-11-18T02:30:46;8.53;;;5.13;;
20972;SDS011;10645;52.370;13.314;2022-11-18T02:33:24;6.33;;;5.73;;
20972;SDS011;10645;52.370;13.314;2022-11-18T02:36:07;7.03;;;6.13;;
20972;SDS011;10645;52.370;13.314;2022-11-18T02:38:41;7.10;;;6.60;;
20972;SDS011;10645;52.370;13.314;2022-11-18T02:41:15;5.70;;;5.20;;
20972;SDS011;10645;52.370;13.314;2022-11-18T02:43:51;7.40;;;4.77;;
20972;SDS011;10645;52.370;13.314;2022-11-18T02:46:23;9.13;;;4.90;;
20972;SDS011;10645;52.370;13.314;2022-11-18T02:48:54;14.17;;;7.00;;
20972;SDS011;10645;52.370;13.314;2022-11-18T02:51:23;4.63;;;4.33;;
20972;SDS011;10645;52.370;13.314;2022-11-18T02:53:52;7.70;;;4.40;;
20972;SDS011;10645;52.370;13.314;2022-11-18T02:56:21;5.93;;;4.30;;
20972;SDS011;10645;52.370;13.314;2022-11-18T02:58:49;6.07;;;5.60;;
20972;SDS011;10645;52.370;13.314;2022-11-18T03:01:25;6.60;;;6.10;;
20972;SDS011;10645;52.370;13.314;2022-11-18T03:03:54;6.50;;;5.93;;
20972;SDS011;10645;52.370;13.314;2022-11-18T03:06:23;6.23;;;5.70;;
20972;SDS011;10645;52.370;13.314;2022-11-18T03:09:01;4.27;;;3.30;;
20972;SDS011;10645;52.370;13.314;2022-11-18T03:11:37;5.67;;;4.73;;
20972;SDS011;10645;52.370;13.314;2022-11-18T03:17:37;6.20;;;5.60;;
20972;SDS011;10645;52.370;13.314;2022-11-18T03:23:11;5.63;;;5.13;;
20972;SDS011;10645;52.370;13.314;2022-11-18T03:26:00;5.43;;;5.03;;
20972;SDS011;10645;52.370;13.314;2022-11-18T03:28:38;7.17;;;6.10;;
20972;SDS011;10645;52.370;13.314;2022-11-18T03:31:17;3.70;;;3.50;;
20972;SDS011;10645;52.370;13.314;2022-11-18T03:33:51;3.83;;;3.70;;
20972;SDS011;10645;52.370;13.314;2022-11-18T03:36:22;10.53;;;7.17;;
20972;SDS011;10645;52.370;13.314;2022-11-18T03:38:52;5.87;;;5.53;;
20972;SDS011;10645;52.370;13.314;2022-11-18T03:41:21;6.57;;;5.97;;
20972;SDS011;10645;52.370;13.314;2022-11-18T03:43:52;8.10;;;6.47;;
20972;SDS011;10645;52.370;13.314;2022-11-18T03:46:36;6.00;;;5.40;;
20972;SDS011;10645;52.370;13.314;2022-11-18T03:49:04;8.03;;;5.40;;
20972;SDS011;10645;52.370;13.314;2022-11-18T03:51:34;8.57;;;4.30;;
20972;SDS011;10645;52.370;13.314;2022-11-18T03:54:08;10.60;;;6.57;;
20972;SDS011;10645;52.370;13.314;2022-11-18T03:56:39;4.63;;;3.00;;
20972;SDS011;10645;52.370;13.314;2022-11-18T03:59:11;4.23;;;3.87;;
20972;SDS011;10645;52.370;13.314;2022-11-18T04:01:44;4.80;;;4.40;;
20972;SDS011;10645;52.370;13.314;2022-11-18T04:04:23;5.77;;;4.67;;
20972;SDS011;10645;52.370;13.314;2022-11-18T04:07:02;12.70;;;8.27;;
20972;SDS011;10645;52.370;13.314;2022-11-18T04:09:36;5.87;;;4.77;;
20972;SDS011;10645;52.370;13.314;2022-11-18T04:12:08;6.10;;;4.77;;
20972;SDS011;10645;52.370;13.314;2022-11-18T04:14:38;13.57;;;6.80;;
20972;SDS011;10645;52.370;13.314;2022-11-18T04:17:08;9.73;;;6.80;;
20972;SDS011;10645;52.370;13.314;2022-11-18T04:19:38;11.10;;;7.67;;
20972;SDS011;10645;52.370;13.314;2022-11-18T04:22:05;5.80;;;4.13;;
20972;SDS011;10645;52.370;13.314;2022-11-18T04:24:32;7.93;;;7.17;;
20972;SDS011;10645;52.370;13.314;2022-11-18T04:26:58;14.37;;;6.43;;
20972;SDS011;10645;52.370;13.314;2022-11-18T04:29:24;8.33;;;4.30;;
20972;SDS011;10645;52.370;13.314;2022-11-18T04:31:50;8.23;;;5.27;;
20972;SDS011;10645;52.370;13.314;2022-11-18T04:34:16;7.33;;;6.73;;
20972;SDS011;10645;52.370;13.314;2022-11-18T04:36:42;12.30;;;7.30;;
20972;SDS011;10645;52.370;13.314;2022-11-18T04:39:08;6.10;;;4.47;;
20972;SDS011;10645;52.370;13.314;2022-11-18T04:41:35;7.30;;;5.73;;
20972;SDS011;10645;52.370;13.314;2022-11-18T04:44:19;6.57;;;4.70;;
20972;SDS011;10645;52.370;13.314;2022-11-18T04:46:46;5.10;;;4.73;;
20972;SDS011;10645;52.370;13.314;2022-11-18T04:49:12;10.47;;;4.43;;
20972;SDS011;10645;52.370;13.314;2022-11-18T04:51:39;8.30;;;7.60;;
20972;SDS011;10645;52.370;13.314;2022-11-18T04:54:06;10.67;;;9.80;;
20972;SDS011;10645;52.370;13.314;2022-11-18T04:56:33;11.27;;;6.87;;
20972;SDS011;10645;52.370;13.314;2022-11-18T04:59:00;7.43;;;6.37;;
20972;SDS011;10645;52.370;13.314;2022-11-18T05:01:27;6.90;;;4.93;;
20972;SDS011;10645;52.370;13.314;2022-11-18T05:03:53;6.13;;;5.73;;
20972;SDS011;10645;52.370;13.314;2022-11-18T05:06:19;10.47;;;7.40;;
20972;SDS011;10645;52.370;13.314;2022-11-18T05:08:46;5.67;;;5.20;;
20972;SDS011;10645;52.370;13.314;2022-11-18T05:11:12;5.37;;;3.63;;
20972;SDS011;10645;52.370;13.314;2022-11-18T05:13:57;11.93;;;4.63;;
20972;SDS011;10645;52.370;13.314;2022-11-18T05:16:23;11.03;;;6.97;;
20972;SDS011;10645;52.370;13.314;2022-11-18T05:18:50;6.43;;;5.17;;
20972;SDS011;10645;52.370;13.314;2022-11-18T05:21:16;5.73;;;3.60;;
20972;SDS011;10645;52.370;13.314;2022-11-18T05:23:42;8.13;;;4.57;;
20972;SDS011;10645;52.370;13.314;2022-11-18T05:26:09;5.37;;;4.90;;
20972;SDS011;10645;52.370;13.314;2022-11-18T05:28:36;6.70;;;6.10;;
20972;SDS011;10645;52.370;13.314;2022-11-18T05:31:06;9.83;;;6.93;;
20972;SDS011;10645;52.370;13.314;2022-11-18T05:33:37;4.80;;;4.43;;
20972;SDS011;10645;52.370;13.314;2022-11-18T05:36:04;8.93;;;5.17;;
20972;SDS011;10645;52.370;13.314;2022-11-18T05:38:31;6.40;;;5.83;;
20972;SDS011;10645;52.370;13.314;2022-11-18T05:40:58;8.83;;;5.10;;
20972;SDS011;10645;52.370;13.314;2022-11-18T05:43:24;8.40;;;6.67;;
20972;SDS011;10645;52.370;13.314;2022-11-18T05:45:51;4.60;;;4.20;;
20972;SDS011;10645;52.370;13.314;2022-11-18T05:48:17;11.03;;;7.27;;
20972;SDS011;10645;52.370;13.314;2022-11-18T05:50:47;6.30;;;5.33;;
20972;SDS011;10645;52.370;13.314;2022-11-18T05:53:15;11.70;;;7.57;;
20972;SDS011;10645;52.370;13.314;2022-11-18T05:55:47;9.43;;;7.27;;
20972;SDS011;10645;52.370;13.314;2022-11-18T05:58:21;9.07;;;8.17;;
20972;SDS011;10645;52.370;13.314;2022-11-18T06:00:48;8.03;;;7.23;;
20972;SDS011;10645;52.370;13.314;2022-11-18T06:03:20;14.33;;;7.30;;
20972;SDS011;10645;52.370;13.314;2022-11-18T06:05:53;10.60;;;8.20;;
20972;SDS011;10645;52.370;13.314;2022-11-18T06:08:19;7.47;;;6.87;;
20972;SDS011;10645;52.370;13.314;2022-11-18T06:10:48;18.70;;;7.47;;
20972;SDS011;10645;52.370;13.314;2022-11-18T06:13:16;8.50;;;7.80;;
20972;SDS011;10645;52.370;13.314;2022-11-18T06:15:46;10.00;;;8.67;;
20972;SDS011;10645;52.370;13.314;2022-11-18T06:18:22;11.80;;;7.77;;
20972;SDS011;10645;52.370;13.314;2022-11-18T06:20:55;10.00;;;5.97;;
20972;SDS011;10645;52.370;13.314;2022-11-18T06:23:28;10.00;;;7.47;;
20972;SDS011;10645;52.370;13.314;2022-11-18T06:25:56;12.10;;;7.60;;
20972;SDS011;10645;52.370;13.314;2022-11-18T06:28:22;10.00;;;6.73;;
20972;SDS011;10645;52.370;13.314;2022-11-18T06:30:49;5.87;;;5.50;;
20972;SDS011;10645;52.370;13.314;2022-11-18T06:33:15;6.97;;;6.40;;
20972;SDS011;10645;52.370;13.314;2022-11-18T06:35:41;9.40;;;6.57;;
20972;SDS011;10645;52.370;13.314;2022-11-18T06:38:07;5.33;;;4.90;;
20972;SDS011;10645;52.370;13.314;2022-11-18T06:40:33;7.53;;;5.63;;
20972;SDS011;10645;52.370;13.314;2022-11-18T06:43:05;7.87;;;5.63;;
20972;SDS011;10645;52.370;13.314;2022-11-18T06:45:50;6.67;;;5.13;;
20972;SDS011;10645;52.370;13.314;2022-11-18T06:48:34;15.23;;;6.37;;
20972;SDS011;10645;52.370;13.314;2022-11-18T06:51:03;6.47;;;4.90;;
20972;SDS011;10645;52.370;13.314;2022-11-18T06:53:30;5.97;;;4.40;;
20972;SDS011;10645;52.370;13.314;2022-11-18T06:55:56;2.27;;;2.17;;
20972;SDS011;10645;52.370;13.314;2022-11-18T06:58:26;8.13;;;4.70;;
20972;SDS011;10645;52.370;13.314;2022-11-18T07:00:52;8.37;;;7.53;;
20972;SDS011;10645;52.370;13.314;2022-11-18T07:03:18;10.67;;;7.80;;
20972;SDS011;10645;52.370;13.314;2022-11-18T07:05:44;7.77;;;7.27;;
20972;SDS011;10645;52.370;13.314;2022-11-18T07:08:10;6.73;;;6.13;;
20972;SDS011;10645;52.370;13.314;2022-11-18T07:10:37;12.70;;;4.70;;
20972;SDS011;10645;52.370;13.314;2022-11-18T07:13:03;2.97;;;2.33;;
20972;SDS011;10645;52.370;13.314;2022-11-18T07:15:29;10.83;;;4.17;;
20972;SDS011;10645;52.370;13.314;2022-11-18T07:17:55;8.87;;;5.47;;
20972;SDS011;10645;52.370;13.314;2022-11-18T07:20:21;9.30;;;8.10;;
20972;SDS011;10645;52.370;13.314;2022-11-18T07:22:47;9.37;;;6.50;;
20972;SDS011;10645;52.370;13.314;2022-11-18T07:25:17;7.43;;;4.47;;
20972;SDS011;10645;52.370;13.314;2022-11-18T07:27:44;4.40;;;3.93;;
20972;SDS011;10645;52.370;13.314;2022-11-18T07:30:10;6.57;;;5.10;;
20972;SDS011;10645;52.370;13.314;2022-11-18T07:32:37;19.30;;;6.67;;
20972;SDS011;10645;52.370;13.314;2022-11-18T07:35:03;6.07;;;5.37;;
20972;SDS011;10645;52.370;13.314;2022-11-18T07:37:29;9.40;;;7.60;;
20972;SDS011;10645;52.370;13.314;2022-11-18T07:39:55;11.33;;;6.70;;
20972;SDS011;10645;52.370;13.314;2022-11-18T07:42:24;10.40;;;5.13;;
20972;SDS011;10645;52.370;13.314;2022-11-18T07:44:50;6.17;;;5.67;;
20972;SDS011;10645;52.370;13.314;2022-11-18T07:47:16;6.20;;;4.67;;
20972;SDS011;10645;52.370;13.314;2022-11-18T07:49:42;2.53;;;2.40;;
20972;SDS011;10645;52.370;13.314;2022-11-18T07:52:08;9.53;;;6.60;;
20972;SDS011;10645;52.370;13.314;2022-11-18T07:54:34;8.70;;;6.33;;
20972;SDS011;10645;52.370;13.314;2022-11-18T07:57:00;4.97;;;4.07;;
20972;SDS011;10645;52.370;13.314;2022-11-18T07:59:26;10.07;;;6.07;;
20972;SDS011;10645;52.370;13.314;2022-11-18T08:01:52;8.13;;;4.10;;
20972;SDS011;10645;52.370;13.314;2022-11-18T08:04:18;8.33;;;6.67;;
20972;SDS011;10645;52.370;13.314;2022-11-18T08:06:44;6.13;;;5.40;;
20972;SDS011;10645;52.370;13.314;2022-11-18T08:09:11;5.83;;;5.37;;
20972;SDS011;10645;52.370;13.314;2022-11-18T08:11:37;9.33;;;6.40;;
20972;SDS011;10645;52.370;13.314;2022-11-18T08:14:03;5.93;;;5.40;;
20972;SDS011;10645;52.370;13.314;2022-11-18T08:16:29;12.83;;;7.27;;
20972;SDS011;10645;52.370;13.314;2022-11-18T08:18:56;8.77;;;5.70;;
20972;SDS011;10645;52.370;13.314;2022-11-18T08:21:23;10.30;;;5.37;;
20972;SDS011;10645;52.370;13.314;2022-11-18T08:23:49;7.67;;;4.90;;
20972;SDS011;10645;52.370;13.314;2022-11-18T08:26:20;6.23;;;4.60;;
20972;SDS011;10645;52.370;13.314;2022-11-18T08:28:47;8.37;;;4.73;;
20972;SDS011;10645;52.370;13.314;2022-11-18T08:31:15;4.00;;;3.60;;
20972;SDS011;10645;52.370;13.314;2022-11-18T08:33:42;7.10;;;4.73;;
20972;SDS011;10645;52.370;13.314;2022-11-18T08:36:11;10.43;;;5.73;;
20972;SDS011;10645;52.370;13.314;2022-11-18T08:38:40;4.27;;;2.87;;
20972;SDS011;10645;52.370;13.314;2022-11-18T08:41:06;10.83;;;6.40;;
20972;SDS011;10645;52.370;13.314;2022-11-18T08:43:34;4.00;;;3.63;;
20972;SDS011;10645;52.370;13.314;2022-11-18T08:46:01;9.10;;;5.40;;
20972;SDS011;10645;52.370;13.314;2022-11-18T08:48:27;9.60;;;6.53;;
20972;SDS011;10645;52.370;13.314;2022-11-18T08:50:53;5.03;;;4.73;;
20972;SDS011;10645;52.370;13.314;2022-11-18T08:53:19;7.67;;;5.07;;
20972;SDS011;10645;52.370;13.314;2022-11-18T08:55:45;4.03;;;3.63;;
20972;SDS011;10645;52.370;13.314;2022-11-18T08:58:11;10.40;;;6.93;;
20972;SDS011;10645;52.370;13.314;2022-11-18T09:00:37;6.10;;;5.27;;
20972;SDS011;10645;52.370;13.314;2022-11-18T09:03:03;8.20;;;6.40;;
20972;SDS011;10645;52.370;13.314;2022-11-18T09:05:29;7.83;;;4.43;;
20972;SDS011;10645;52.370;13.314;2022-11-18T09:07:55;7.47;;;4.67;;
20972;SDS011;10645;52.370;13.314;2022-11-18T09:10:21;5.43;;;4.43;;
20972;SDS011;10645;52.370;13.314;2022-11-18T09:12:48;8.17;;;5.20;;
20972;SDS011;10645;52.370;13.314;2022-11-18T09:15:14;5.57;;;5.13;;
20972;SDS011;10645;52.370;13.314;2022-11-18T09:17:40;9.90;;;7.57;;
20972;SDS011;10645;52.370;13.314;2022-11-18T09:20:06;4.20;;;3.90;;
20972;SDS011;10645;52.370;13.314;2022-11-18T09:22:34;4.43;;;3.93;;
20972;SDS011;10645;52.370;13.314;2022-11-18T09:25:01;5.53;;;5.10;;
20972;SDS011;10645;52.370;13.314;2022-11-18T09:27:27;6.20;;;5.07;;
20972;SDS011;10645;52.370;13.314;2022-11-18T09:29:53;9.47;;;5.40;;
20972;SDS011;10645;52.370;13.314;2022-11-18T09:32:19;4.80;;;3.30;;
20972;SDS011;10645;52.370;13.314;2022-11-18T09:34:45;4.50;;;4.20;;
20972;SDS011;10645;52.370;13.314;2022-11-18T09:37:11;5.63;;;5.13;;
20972;SDS011;10645;52.370;13.314;2022-11-18T09:39:37;4.40;;;4.07;;
20972;SDS011;10645;52.370;13.314;2022-11-18T09:42:16;4.33;;;4.03;;
20972;SDS011;10645;52.370;13.314;2022-11-18T09:45:04;6.00;;;4.10;;
20972;SDS011;10645;52.370;13.314;2022-11-18T09:47:44;3.97;;;3.23;;
20972;SDS011;10645;52.370;13.314;2022-11-18T09:50:12;7.40;;;4.60;;
20972;SDS011;10645;52.370;13.314;2022-11-18T09:52:43;4.37;;;3.03;;
20972;SDS011;10645;52.370;13.314;2022-11-18T09:55:26;8.47;;;6.33;;
20972;SDS011;10645;52.370;13.314;2022-11-18T09:57:54;13.37;;;7.47;;
20972;SDS011;10645;52.370;13.314;2022-11-18T10:00:23;3.40;;;3.13;;
20972;SDS011;10645;52.370;13.314;2022-11-18T10:03:01;5.37;;;4.23;;
20972;SDS011;10645;52.370;13.314;2022-11-18T10:05:31;4.27;;;3.93;;
20972;SDS011;10645;52.370;13.314;2022-11-18T10:08:26;3.93;;;3.63;;
20972;SDS011;10645;52.370;13.314;2022-11-18T10:16:49;8.27;;;3.97;;
20972;SDS011;10645;52.370;13.314;2022-11-18T10:19:41;5.77;;;5.17;;
20972;SDS011;10645;52.370;13.314;2022-11-18T10:22:20;6.90;;;6.33;;
20972;SDS011;10645;52.370;13.314;2022-11-18T10:24:58;2.53;;;2.33;;
20972;SDS011;10645;52.370;13.314;2022-11-18T10:27:26;4.17;;;3.87;;
20972;SDS011;10645;52.370;13.314;2022-11-18T10:29:59;6.00;;;5.03;;
20972;SDS011;10645;52.370;13.314;2022-11-18T10:32:25;4.80;;;4.03;;
20972;SDS011;10645;52.370;13.314;2022-11-18T10:34:53;3.93;;;3.57;;
20972;SDS011;10645;52.370;13.314;2022-11-18T10:37:28;3.90;;;2.53;;
20972;SDS011;10645;52.370;13.314;2022-11-18T10:40:02;9.50;;;4.17;;
20972;SDS011;10645;52.370;13.314;2022-11-18T10:42:43;3.30;;;3.10;;
20972;SDS011;10645;52.370;13.314;2022-11-18T10:47:58;3.07;;;2.87;;
20972;SDS011;10645;52.370;13.314;2022-11-18T10:50:34;4.30;;;3.97;;
20972;SDS011;10645;52.370;13.314;2022-11-18T10:55:58;4.73;;;2.67;;
20972;SDS011;10645;52.370;13.314;2022-11-18T10:58:25;6.00;;;3.50;;
20972;SDS011;10645;52.370;13.314;2022-11-18T11:01:09;5.03;;;4.07;;
20972;SDS011;10645;52.370;13.314;2022-11-18T11:06:33;2.87;;;2.77;;
20972;SDS011;10645;52.370;13.314;2022-11-18T11:09:06;3.10;;;2.70;;
20972;SDS011;10645;52.370;13.314;2022-11-18T11:11:34;3.23;;;3.03;;
20972;SDS011;10645;52.370;13.314;2022-11-18T11:16:30;2.10;;;1.93;;
20972;SDS011;10645;52.370;13.314;2022-11-18T11:19:03;4.50;;;4.13;;
20972;SDS011;10645;52.370;13.314;2022-11-18T11:21:34;3.23;;;3.03;;
20972;SDS011;10645;52.370;13.314;2022-11-18T11:24:00;1.73;;;1.53;;
20972;SDS011;10645;52.370;13.314;2022-11-18T11:26:37;4.07;;;3.77;;
20972;SDS011;10645;52.370;13.314;2022-11-18T11:29:27;3.03;;;2.83;;
20972;SDS011;10645;52.370;13.314;2022-11-18T11:34:44;3.77;;;3.00;;
20972;SDS011;10645;52.370;13.314;2022-11-18T11:40:16;4.83;;;4.53;;
20972;SDS011;10645;52.370;13.314;2022-11-18T11:43:01;3.93;;;3.73;;
20972;SDS011;10645;52.370;13.314;2022-11-18T11:51:44;3.40;;;3.13;;
20972;SDS011;10645;52.370;13.314;2022-11-18T11:59:46;3.37;;;3.07;;
20972;SDS011;10645;52.370;13.314;2022-11-18T12:05:36;1.90;;;1.57;;
20972;SDS011;10645;52.370;13.314;2022-11-18T12:11:13;2.87;;;2.63;;
20972;SDS011;10645;52.370;13.314;2022-11-18T12:14:01;1.60;;;1.30;;
20972;SDS011;10645;52.370;13.314;2022-11-18T12:16:44;2.83;;;2.73;;
20972;SDS011;10645;52.370;13.314;2022-11-18T12:19:19;3.53;;;2.60;;
20972;SDS011;10645;52.370;13.314;2022-11-18T12:21:53;5.40;;;2.20;;
20972;SDS011;10645;52.370;13.314;2022-11-18T12:24:26;14.40;;;5.23;;
20972;SDS011;10645;52.370;13.314;2022-11-18T12:32:28;6.53;;;3.53;;
20972;SDS011;10645;52.370;13.314;2022-11-18T12:34:57;2.07;;;1.97;;
20972;SDS011;10645;52.370;13.314;2022-11-18T12:42:56;2.73;;;2.63;;
20972;SDS011;10645;52.370;13.314;2022-11-18T12:58:52;2.67;;;2.20;;
20972;SDS011;10645;52.370;13.314;2022-11-18T13:01:23;6.87;;;2.73;;
20972;SDS011;10645;52.370;13.314;2022-11-18T13:04:06;3.43;;;2.90;;
20972;SDS011;10645;52.370;13.314;2022-11-18T13:06:36;2.10;;;1.90;;
20972;SDS011;10645;52.370;13.314;2022-11-18T13:09:04;2.23;;;2.13;;
20972;SDS011;10645;52.370;13.314;2022-11-18T13:12:03;3.10;;;2.73;;
20972;SDS011;10645;52.370;13.314;2022-11-18T13:14:34;0.73;;;0.73;;
20972;SDS011;10645;52.370;13.314;2022-11-18T13:20:18;1.70;;;1.20;;
20972;SDS011;10645;52.370;13.314;2022-11-18T13:25:54;3.83;;;1.13;;
20972;SDS011;10645;52.370;13.314;2022-11-18T13:28:35;2.43;;;1.37;;
20972;SDS011;10645;52.370;13.314;2022-11-18T13:36:46;3.63;;;1.23;;
20972;SDS011;10645;52.370;13.314;2022-11-18T13:44:50;3.47;;;0.97;;
20972;SDS011;10645;52.370;13.314;2022-11-18T13:47:22;1.37;;;1.27;;
20972;SDS011;10645;52.370;13.314;2022-11-18T13:52:48;2.20;;;2.10;;
20972;SDS011;10645;52.370;13.314;2022-11-18T13:55:33;0.67;;;0.67;;
20972;SDS011;10645;52.370;13.314;2022-11-18T14:00:43;1.23;;;1.13;;
20972;SDS011;10645;52.370;13.314;2022-11-18T14:03:58;2.87;;;0.57;;
20972;SDS011;10645;52.370;13.314;2022-11-18T14:09:04;2.30;;;1.40;;
20972;SDS011;10645;52.370;13.314;2022-11-18T14:12:02;2.03;;;1.10;;
20972;SDS011;10645;52.370;13.314;2022-11-18T14:14:38;0.93;;;0.80;;
20972;SDS011;10645;52.370;13.314;2022-11-18T14:19:47;1.30;;;0.30;;
20972;SDS011;10645;52.370;13.314;2022-11-18T14:22:21;1.47;;;1.40;;
20972;SDS011;10645;52.370;13.314;2022-11-18T14:27:27;1.20;;;1.20;;
20972;SDS011;10645;52.370;13.314;2022-11-18T14:33:18;2.17;;;0.50;;
20972;SDS011;10645;52.370;13.314;2022-11-18T14:35:48;1.70;;;1.23;;
20972;SDS011;10645;52.370;13.314;2022-11-18T14:40:45;2.10;;;2.00;;
20972;SDS011;10645;52.370;13.314;2022-11-18T14:43:11;0.87;;;0.83;;
20972;SDS011;10645;52.370;13.314;2022-11-18T14:45:38;1.03;;;0.60;;
20972;SDS011;10645;52.370;13.314;2022-11-18T14:48:05;1.43;;;1.37;;
20972;SDS011;10645;52.370;13.314;2022-11-18T14:50:32;4.00;;;1.73;;
20972;SDS011;10645;52.370;13.314;2022-11-18T14:52:58;2.67;;;1.23;;
20972;SDS011;10645;52.370;13.314;2022-11-18T14:55:24;1.10;;;1.10;;
20972;SDS011;10645;52.370;13.314;2022-11-18T14:57:50;1.50;;;1.30;;
20972;SDS011;10645;52.370;13.314;2022-11-18T15:00:16;0.90;;;0.90;;
20972;SDS011;10645;52.370;13.314;2022-11-18T15:02:42;0.33;;;0.33;;
20972;SDS011;10645;52.370;13.314;2022-11-18T15:05:09;2.00;;;1.90;;
20972;SDS011;10645;52.370;13.314;2022-11-18T15:07:35;1.27;;;1.27;;
20972;SDS011;10645;52.370;13.314;2022-11-18T15:10:02;0.90;;;0.90;;
20972;SDS011;10645;52.370;13.314;2022-11-18T15:12:28;1.00;;;0.37;;
20972;SDS011;10645;52.370;13.314;2022-11-18T15:14:54;1.77;;;1.67;;
20972;SDS011;10645;52.370;13.314;2022-11-18T15:17:20;1.03;;;0.97;;
20972;SDS011;10645;52.370;13.314;2022-11-18T15:19:46;1.40;;;1.30;;
20972;SDS011;10645;52.370;13.314;2022-11-18T15:22:12;3.23;;;2.33;;
20972;SDS011;10645;52.370;13.314;2022-11-18T15:24:38;0.30;;;0.30;;
20972;SDS011;10645;52.370;13.314;2022-11-18T15:27:04;0.87;;;0.87;;
20972;SDS011;10645;52.370;13.314;2022-11-18T15:29:31;0.80;;;0.80;;
20972;SDS011;10645;52.370;13.314;2022-11-18T15:31:57;1.23;;;1.13;;
20972;SDS011;10645;52.370;13.314;2022-11-18T15:34:24;2.97;;;0.97;;
20972;SDS011;10645;52.370;13.314;2022-11-18T15:36:50;1.00;;;0.90;;
20972;SDS011;10645;52.370;13.314;2022-11-18T15:39:16;1.60;;;1.20;;
20972;SDS011;10645;52.370;13.314;2022-11-18T15:41:42;0.83;;;0.60;;
20972;SDS011;10645;52.370;13.314;2022-11-18T15:44:09;0.53;;;0.53;;
20972;SDS011;10645;52.370;13.314;2022-11-18T15:46:35;2.33;;;2.13;;
20972;SDS011;10645;52.370;13.314;2022-11-18T15:49:02;3.20;;;0.60;;
20972;SDS011;10645;52.370;13.314;2022-11-18T15:51:29;0.60;;;0.60;;
20972;SDS011;10645;52.370;13.314;2022-11-18T15:53:56;1.40;;;0.97;;
20972;SDS011;10645;52.370;13.314;2022-11-18T16:01:30;0.73;;;0.67;;
20972;SDS011;10645;52.370;13.314;2022-11-18T16:04:00;2.00;;;1.63;;
20972;SDS011;10645;52.370;13.314;2022-11-18T16:06:27;1.60;;;0.93;;
20972;SDS011;10645;52.370;13.314;2022-11-18T16:08:53;0.77;;;0.77;;
20972;SDS011;10645;52.370;13.314;2022-11-18T16:11:21;0.60;;;0.60;;
20972;SDS011;10645;52.370;13.314;2022-11-18T16:14:10;0.00;;;0.00;;
20972;SDS011;10645;52.370;13.314;2022-11-18T16:16:38;0.57;;;0.57;;
20972;SDS011;10645;52.370;13.314;2022-11-18T16:19:06;2.50;;;1.23;;
20972;SDS011;10645;52.370;13.314;2022-11-18T16:21:38;0.83;;;0.77;;
20972;SDS011;10645;52.370;13.314;2022-11-18T16:24:07;0.80;;;0.80;;
20972;SDS011;10645;52.370;13.314;2022-11-18T16:26:36;3.50;;;0.83;;
20972;SDS011;10645;52.370;13.314;2022-11-18T16:29:03;1.17;;;0.67;;
20972;SDS011;10645;52.370;13.314;2022-11-18T16:31:30;2.43;;;1.90;;
20972;SDS011;10645;52.370;13.314;2022-11-18T16:34:05;0.10;;;0.10;;
20972;SDS011;10645;52.370;13.314;2022-11-18T16:36:33;0.47;;;0.47;;
20972;SDS011;10645;52.370;13.314;2022-11-18T16:39:08;0.03;;;0.03;;
20972;SDS011;10645;52.370;13.314;2022-11-18T16:41:36;1.13;;;1.13;;
20972;SDS011;10645;52.370;13.314;2022-11-18T16:44:04;1.17;;;1.17;;
20972;SDS011;10645;52.370;13.314;2022-11-18T16:46:36;0.37;;;0.37;;
20972;SDS011;10645;52.370;13.314;2022-11-18T16:49:04;2.77;;;1.93;;
20972;SDS011;10645;52.370;13.314;2022-11-18T16:51:31;0.47;;;0.47;;
20972;SDS011;10645;52.370;13.314;2022-11-18T16:53:59;0.57;;;0.47;;